createdAt,value
2022-10-22T00:00:02.993Z,99.6
2022-10-22T00:15:02.439Z,99.6
2022-10-22T00:30:02.878Z,99.6
2022-10-22T00:45:02.386Z,99.5
2022-10-22T01:00:02.765Z,99.8
2022-10-22T01:15:03.390Z,99.8
2022-10-22T01:30:02.637Z,99.8
2022-10-22T01:45:03.043Z,99.7
2022-10-22T02:00:02.487Z,99.7
2022-10-22T02:15:02.953Z,99.7
2022-10-22T02:30:02.460Z,99.6
2022-10-22T02:45:02.834Z,99.7
2022-10-22T03:00:03.425Z,99.6
2022-10-22T03:15:02.716Z,99.6
2022-10-22T03:30:03.350Z,99.5
2022-10-22T03:45:02.597Z,99.5
2022-10-22T04:00:03.015Z,99.5
2022-10-22T04:15:02.481Z,99.7
2022-10-22T04:30:02.919Z,99.6
2022-10-22T04:45:02.438Z,99.7
2022-10-22T05:00:02.786Z,99.5
2022-10-22T05:15:03.441Z,99.6
2022-10-22T05:30:02.652Z,99.7
2022-10-22T05:45:03.096Z,99.6
2022-10-22T06:00:02.524Z,99.7
2022-10-22T06:15:02.942Z,99.7
2022-10-22T06:30:02.456Z,99.8
2022-10-22T06:45:02.906Z,99.9
2022-10-22T07:00:02.462Z,99.7
2022-10-22T07:15:02.687Z,99.6
2022-10-22T07:30:03.168Z,99.6
2022-10-22T07:45:02.612Z,99.6
2022-10-22T08:00:03.042Z,99.9
2022-10-22T08:15:02.472Z,100.2
2022-10-22T08:30:02.904Z,100.0
2022-10-22T08:45:02.451Z,99.7
2022-10-22T09:00:02.789Z,97.4
2022-10-22T09:15:03.450Z,96.1
2022-10-22T09:30:02.673Z,95.9
2022-10-22T09:45:03.107Z,94.5
2022-10-22T10:00:02.532Z,93.9
2022-10-22T10:15:02.963Z,93.0
2022-10-22T10:30:02.508Z,91.9
2022-10-22T10:45:02.864Z,90.9
2022-10-22T11:00:02.474Z,90.5
2022-10-22T11:15:02.746Z,89.7
2022-10-22T11:30:03.210Z,88.6
2022-10-22T11:45:02.616Z,87.1
2022-10-22T12:00:03.051Z,83.9
2022-10-22T12:15:02.522Z,81.1
2022-10-22T12:30:02.933Z,81.2
2022-10-22T12:45:02.545Z,79.6
2022-10-22T13:00:02.804Z,78.2
2022-10-22T13:15:03.252Z,79.9
2022-10-22T13:30:02.661Z,81.5
2022-10-22T13:45:03.135Z,83.0
2022-10-22T14:00:02.631Z,85.1
2022-10-22T14:15:03.009Z,85.8
2022-10-22T14:30:02.601Z,85.4
2022-10-22T14:45:02.900Z,85.9
2022-10-22T15:00:02.558Z,86.5
2022-10-22T15:15:02.775Z,86.4
2022-10-22T15:45:02.620Z,86.9
2022-10-22T16:00:03.070Z,86.9
2022-10-22T16:15:02.572Z,87.1
2022-10-22T16:30:02.979Z,87.1
2022-10-22T16:45:02.651Z,87.4
2022-10-22T17:00:02.852Z,87.7
2022-10-22T17:15:02.304Z,87.8
2022-10-22T17:30:02.750Z,88.2
2022-10-22T17:45:03.188Z,88.2
2022-10-22T18:00:02.623Z,88.7
2022-10-22T18:15:03.070Z,88.7
2022-10-22T18:30:02.601Z,89.0
2022-10-22T18:45:02.950Z,89.2
2022-10-22T19:00:02.539Z,89.6
2022-10-22T19:15:02.792Z,90.1
2022-10-22T19:30:02.258Z,90.0
2022-10-22T19:45:02.682Z,90.1
2022-10-22T20:00:03.088Z,90.1
2022-10-22T20:15:02.618Z,90.3
2022-10-22T20:30:03.069Z,90.8
2022-10-22T20:45:02.633Z,91.2
2022-10-22T21:00:02.864Z,91.4
2022-10-22T21:15:02.290Z,91.6
2022-10-22T21:30:02.741Z,91.5
2022-10-22T21:45:03.313Z,91.5
2022-10-22T22:00:02.666Z,92.0
2022-10-22T22:15:03.039Z,92.1
2022-10-22T22:30:02.649Z,92.2
2022-10-22T22:45:02.941Z,92.4
2022-10-22T23:00:02.430Z,92.7
2022-10-22T23:15:02.786Z,92.9
2022-10-22T23:30:02.244Z,92.9
2022-10-22T23:45:02.669Z,93.3
